Terminal Aerodrome Forecast
Issued by NWS Wilmington, NC

Home | Current Version | Previous Version | Text Only | Print | Product List | Glossary On
Versions: 1 2 3 4 5 6 7 8 9 10 11 12 13 14 15 16 17 18 19 20 21 22 23
597
FTUS42 KILM 181032 CCA
TAFMYR
TAF COR
KMYR 181032Z 1810/1906 33003KT 6SM BR SCT005 BKN012
      TEMPO 1810/1814 3SM BR BKN005
     FM181500 04014KT P6SM BKN050 BKN250
     FM181800 09014G20KT P6SM SCT050 SCT250
     FM190100 07010KT P6SM BKN015 OVC050=

USA.gov is the U.S. government's official web portal to all federal, state and local government web resources and services.